createdAt,value
2023-05-23T00:00:13.188Z,16.71
2023-05-23T00:02:05.015Z,16.69
2023-05-23T00:03:56.373Z,16.67
2023-05-23T00:05:47.659Z,16.67
2023-05-23T00:07:38.353Z,16.66
2023-05-23T00:09:29.190Z,16.61
2023-05-23T00:11:20.036Z,16.59
2023-05-23T00:13:11.651Z,16.56
2023-05-23T00:15:02.777Z,16.49
2023-05-23T00:16:53.659Z,16.47
2023-05-23T00:18:45.024Z,16.44
2023-05-23T00:20:38.615Z,16.39
2023-05-23T00:22:29.642Z,16.36
2023-05-23T00:24:20.858Z,16.34
2023-05-23T00:26:11.787Z,16.30
2023-05-23T00:28:04.410Z,16.29
2023-05-23T00:29:55.160Z,16.23
2023-05-23T00:31:47.950Z,16.21
2023-05-23T00:33:38.914Z,16.19
2023-05-23T00:35:29.811Z,16.18
2023-05-23T00:37:22.536Z,16.17
2023-05-23T00:39:14.077Z,16.16
2023-05-23T00:41:05.614Z,16.12
2023-05-23T00:42:56.751Z,16.07
2023-05-23T00:44:47.925Z,16.00
2023-05-23T00:46:39.026Z,15.99
2023-05-23T00:48:31.487Z,15.96
2023-05-23T00:50:22.460Z,15.95
2023-05-23T00:52:15.173Z,15.93
2023-05-23T00:54:07.333Z,15.92
2023-05-23T00:55:58.489Z,15.90
2023-05-23T00:57:49.356Z,15.83
2023-05-23T00:59:44.767Z,15.78
2023-05-23T01:01:43.635Z,15.76
2023-05-23T01:03:34.980Z,15.74
2023-05-23T01:05:26.170Z,15.68
2023-05-23T01:07:17.216Z,15.63
2023-05-23T01:09:08.758Z,15.59
2023-05-23T01:11:09.258Z,15.60
2023-05-23T01:13:34.533Z,15.57
2023-05-23T01:15:36.983Z,15.51
2023-05-23T01:17:55.432Z,15.47
2023-05-23T01:20:09.807Z,15.43
2023-05-23T01:22:11.937Z,15.36
2023-05-23T01:24:39.327Z,15.31
2023-05-23T01:26:52.248Z,15.29
2023-05-23T01:28:48.466Z,15.24
2023-05-23T01:30:45.129Z,15.21
2023-05-23T01:32:37.565Z,15.20
2023-05-23T01:34:32.125Z,15.14
2023-05-23T01:36:23.152Z,15.10
2023-05-23T01:38:14.171Z,15.11
2023-05-23T01:40:06.416Z,15.09
2023-05-23T01:41:57.672Z,15.07
2023-05-23T01:43:48.591Z,15.04
2023-05-23T01:45:40.981Z,15.02
2023-05-23T01:47:32.895Z,15.00
2023-05-23T01:49:25.342Z,14.97
2023-05-23T01:51:16.543Z,14.98
2023-05-23T01:53:10.345Z,14.96
2023-05-23T01:55:02.004Z,14.93
2023-05-23T01:56:54.682Z,14.92
2023-05-23T01:58:46.188Z,14.87
2023-05-23T02:00:37.890Z,14.82
2023-05-23T02:02:40.955Z,14.80
2023-05-23T02:04:32.759Z,14.76
2023-05-23T02:06:26.532Z,14.76
2023-05-23T02:08:17.559Z,14.76
2023-05-23T02:10:11.595Z,14.77
2023-05-23T02:12:02.192Z,14.75
2023-05-23T02:13:53.267Z,14.70
2023-05-23T02:15:44.257Z,14.62
2023-05-23T02:17:35.620Z,14.54
2023-05-23T02:19:26.555Z,14.51
2023-05-23T02:21:17.743Z,14.48
2023-05-23T02:23:11.510Z,14.47
2023-05-23T02:25:03.168Z,14.46
2023-05-23T02:26:54.476Z,14.47
2023-05-23T02:28:45.458Z,14.44
2023-05-23T02:30:36.541Z,14.41
2023-05-23T02:32:27.216Z,14.38
2023-05-23T02:34:18.274Z,14.35
2023-05-23T02:36:09.952Z,14.38
2023-05-23T02:38:03.066Z,14.39
2023-05-23T02:39:54.024Z,14.38
2023-05-23T02:41:45.450Z,14.36
2023-05-23T02:43:36.277Z,14.32
2023-05-23T02:45:28.131Z,14.28
2023-05-23T02:47:19.892Z,14.26
2023-05-23T02:49:11.279Z,14.25
2023-05-23T02:51:01.966Z,14.24
2023-05-23T02:52:52.859Z,14.22
2023-05-23T02:54:43.987Z,14.19
2023-05-23T02:56:35.159Z,14.16
2023-05-23T02:58:26.050Z,14.17
2023-05-23T03:00:18.189Z,14.21
2023-05-23T03:02:10.454Z,14.22
2023-05-23T03:04:01.154Z,14.25
2023-05-23T03:05:52.782Z,14.26
2023-05-23T03:07:43.565Z,14.26
2023-05-23T03:09:34.592Z,14.27
2023-05-23T03:11:26.202Z,14.25
2023-05-23T03:13:18.062Z,14.26
2023-05-23T03:15:10.598Z,14.27
2023-05-23T03:17:01.691Z,14.22
2023-05-23T03:18:52.705Z,14.23
2023-05-23T03:20:43.485Z,14.25
2023-05-23T03:22:34.527Z,14.27
2023-05-23T03:24:25.206Z,14.29
2023-05-23T03:26:16.270Z,14.34
2023-05-23T03:28:07.890Z,14.39
2023-05-23T03:29:58.738Z,14.41
2023-05-23T03:31:50.037Z,14.44
2023-05-23T03:33:41.055Z,14.46
2023-05-23T03:35:31.820Z,14.48
2023-05-23T03:37:22.721Z,14.50
2023-05-23T03:39:13.701Z,14.52
2023-05-23T03:41:04.829Z,14.53
2023-05-23T03:43:07.032Z,14.54
2023-05-23T03:44:58.317Z,14.55
2023-05-23T03:46:49.576Z,14.59
2023-05-23T03:48:41.139Z,14.63
2023-05-23T03:50:32.497Z,14.64
2023-05-23T03:52:23.849Z,14.59
2023-05-23T03:54:14.455Z,14.59
2023-05-23T03:56:06.002Z,14.65
2023-05-23T03:57:57.042Z,14.71
2023-05-23T03:59:48.025Z,14.79
2023-05-23T04:01:39.087Z,14.80
2023-05-23T04:03:30.752Z,14.84
2023-05-23T04:05:22.384Z,14.85
2023-05-23T04:07:13.406Z,14.83
2023-05-23T04:09:04.328Z,14.87
2023-05-23T04:10:55.230Z,14.90
2023-05-23T04:12:46.675Z,14.97
2023-05-23T04:14:37.255Z,15.02
2023-05-23T04:16:28.614Z,15.08
2023-05-23T04:18:20.040Z,15.11
2023-05-23T04:20:11.185Z,15.10
2023-05-23T04:22:02.161Z,15.13
2023-05-23T04:23:53.223Z,15.20
2023-05-23T04:25:44.264Z,15.28
2023-05-23T04:27:36.850Z,15.36
2023-05-23T04:29:29.095Z,15.38
2023-05-23T04:31:20.818Z,15.43
2023-05-23T04:33:11.990Z,15.42
2023-05-23T04:35:02.977Z,15.46
2023-05-23T04:36:54.174Z,15.56
2023-05-23T04:38:45.286Z,15.73
2023-05-23T04:40:36.616Z,15.91
2023-05-23T04:42:30.466Z,16.22
2023-05-23T04:44:21.407Z,16.60
2023-05-23T04:46:12.658Z,16.97
2023-05-23T04:48:04.580Z,17.28
2023-05-23T04:49:56.144Z,17.60
2023-05-23T04:51:47.312Z,17.99
2023-05-23T04:53:38.364Z,18.36
2023-05-23T04:55:29.429Z,18.72
2023-05-23T04:57:20.576Z,19.02
2023-05-23T04:59:11.560Z,19.19
2023-05-23T05:01:02.987Z,19.39
2023-05-23T05:02:54.112Z,19.60
2023-05-23T05:04:47.427Z,19.92
2023-05-23T05:06:38.342Z,20.22
2023-05-23T05:08:29.122Z,20.38
2023-05-23T05:10:21.093Z,20.60
2023-05-23T05:12:21.353Z,20.87
2023-05-23T05:14:12.324Z,21.04
2023-05-23T05:16:04.184Z,21.25
2023-05-23T05:17:54.835Z,21.47
2023-05-23T05:19:48.900Z,21.78
2023-05-23T05:21:40.054Z,22.09
2023-05-23T05:23:32.326Z,22.35
2023-05-23T05:25:23.299Z,22.62
2023-05-23T05:27:14.071Z,22.83
2023-05-23T05:29:05.215Z,23.04
2023-05-23T05:30:56.240Z,23.22
2023-05-23T05:32:47.213Z,23.46
2023-05-23T05:34:38.349Z,23.63
2023-05-23T05:36:29.450Z,23.65
2023-05-23T05:38:20.774Z,23.65
2023-05-23T05:40:12.369Z,23.79
2023-05-23T05:42:03.415Z,23.99
2023-05-23T05:43:54.250Z,24.24
2023-05-23T05:45:45.125Z,24.45
2023-05-23T05:47:36.542Z,24.70
2023-05-23T05:49:27.648Z,24.85
2023-05-23T05:51:18.882Z,25.05
2023-05-23T05:53:10.007Z,25.18
2023-05-23T05:55:01.580Z,25.42
2023-05-23T05:56:52.662Z,25.69
2023-05-23T05:58:44.022Z,26.02
2023-05-23T06:00:34.928Z,26.17
2023-05-23T06:02:26.362Z,26.22
2023-05-23T06:04:18.241Z,26.45
2023-05-23T06:06:09.266Z,26.75
2023-05-23T06:08:00.554Z,27.12
2023-05-23T06:09:51.718Z,27.36
2023-05-23T06:11:42.882Z,27.50
2023-05-23T06:13:41.443Z,27.59
2023-05-23T06:15:32.859Z,27.87
2023-05-23T06:17:23.801Z,28.13
2023-05-23T06:19:14.950Z,28.36
2023-05-23T06:22:46.859Z,29.03
2023-05-23T06:24:39.013Z,29.48
2023-05-23T06:26:31.739Z,29.99
2023-05-23T06:28:31.856Z,30.44
2023-05-23T06:30:23.479Z,30.67
2023-05-23T06:32:14.634Z,30.86
2023-05-23T06:34:05.336Z,31.11
2023-05-23T06:35:56.654Z,31.43
2023-05-23T06:37:47.833Z,31.87
2023-05-23T06:39:38.901Z,32.20
2023-05-23T06:41:30.393Z,32.58
2023-05-23T06:43:21.529Z,32.80
2023-05-23T06:45:14.966Z,33.08
2023-05-23T06:47:07.506Z,33.40
2023-05-23T06:49:10.757Z,33.90
2023-05-23T06:51:05.577Z,34.12
2023-05-23T06:52:56.433Z,34.40
2023-05-23T06:54:47.629Z,34.66
2023-05-23T06:56:38.952Z,34.86
2023-05-23T06:58:30.878Z,34.77
2023-05-23T07:00:22.762Z,35.09
2023-05-23T07:02:14.569Z,35.50
2023-05-23T07:04:06.082Z,35.98
2023-05-23T07:05:56.914Z,36.11
2023-05-23T07:07:51.414Z,36.30
2023-05-23T07:09:42.568Z,36.22
2023-05-23T07:11:33.625Z,36.57
2023-05-23T07:13:24.718Z,37.07
2023-05-23T07:15:15.917Z,37.57
2023-05-23T07:17:07.000Z,37.83
2023-05-23T07:18:57.801Z,38.22
2023-05-23T07:20:48.856Z,38.60
2023-05-23T07:22:40.274Z,38.89
2023-05-23T07:24:31.314Z,39.04
2023-05-23T07:26:21.963Z,39.27
2023-05-23T07:28:13.157Z,39.42
2023-05-23T07:30:04.760Z,39.26
2023-05-23T07:31:55.612Z,39.55
2023-05-23T07:33:46.772Z,39.80
2023-05-23T07:35:37.696Z,39.47
2023-05-23T07:37:28.894Z,39.16
2023-05-23T07:39:29.848Z,39.29
2023-05-23T07:41:20.991Z,39.75
2023-05-23T07:43:11.731Z,40.27
2023-05-23T07:45:02.983Z,40.87
2023-05-23T07:46:54.771Z,41.24
2023-05-23T07:48:46.127Z,41.86
2023-05-23T07:50:37.558Z,42.33
2023-05-23T07:52:32.379Z,42.71
2023-05-23T07:54:23.274Z,42.54
2023-05-23T07:56:14.267Z,42.34
2023-05-23T07:58:05.233Z,42.18
2023-05-23T07:59:56.394Z,41.84
2023-05-23T08:01:47.276Z,41.72
2023-05-23T08:03:38.565Z,41.94
2023-05-23T08:05:29.578Z,42.36
2023-05-23T08:07:21.036Z,42.37
2023-05-23T08:09:12.300Z,41.96
2023-05-23T08:11:04.024Z,41.16
2023-05-23T08:12:55.399Z,40.94
2023-05-23T08:14:51.337Z,41.31
2023-05-23T08:16:43.543Z,41.75
2023-05-23T08:18:34.431Z,42.33
2023-05-23T08:20:25.599Z,42.81
2023-05-23T08:22:16.412Z,42.94
2023-05-23T08:24:07.313Z,42.84
2023-05-23T08:25:58.487Z,42.46
2023-05-23T08:27:49.630Z,41.56
2023-05-23T08:29:41.122Z,40.64
2023-05-23T08:31:37.379Z,39.02
2023-05-23T08:33:28.484Z,37.68
2023-05-23T08:35:22.558Z,36.62
2023-05-23T08:37:13.944Z,35.45
2023-05-23T08:39:04.740Z,34.17
2023-05-23T08:41:01.792Z,33.16
2023-05-23T08:42:56.955Z,32.21
2023-05-23T08:44:49.976Z,31.50
2023-05-23T08:46:47.140Z,30.97
2023-05-23T08:48:39.911Z,30.53
2023-05-23T08:50:37.857Z,30.26
2023-05-23T08:52:33.391Z,30.02
2023-05-23T08:54:24.915Z,29.78
2023-05-23T08:56:16.730Z,29.54
2023-05-23T08:58:07.934Z,29.29
2023-05-23T09:00:00.783Z,29.22
2023-05-23T09:01:56.414Z,29.23
2023-05-23T09:03:49.388Z,29.20
2023-05-23T09:05:43.553Z,29.11
2023-05-23T09:07:35.128Z,28.93
2023-05-23T09:09:33.627Z,28.73
2023-05-23T09:11:25.850Z,28.68
2023-05-23T09:13:17.561Z,28.72
2023-05-23T09:15:08.833Z,28.67
2023-05-23T09:17:04.586Z,28.64
2023-05-23T09:18:55.831Z,28.50
2023-05-23T09:20:50.591Z,28.42
2023-05-23T09:22:46.241Z,28.42
2023-05-23T09:24:37.598Z,28.34
2023-05-23T09:26:28.929Z,28.20
2023-05-23T09:28:20.189Z,27.95
2023-05-23T09:30:15.612Z,27.83
2023-05-23T09:32:22.333Z,27.52
2023-05-23T09:34:13.535Z,27.31
2023-05-23T09:36:06.161Z,27.34
2023-05-23T09:37:58.752Z,27.29
2023-05-23T09:39:49.675Z,27.26
2023-05-23T09:41:43.321Z,27.25
2023-05-23T09:43:34.699Z,27.25
2023-05-23T09:45:31.728Z,27.23
2023-05-23T09:47:22.563Z,27.13
2023-05-23T09:49:17.898Z,27.17
2023-05-23T09:51:10.971Z,27.19
2023-05-23T09:53:02.454Z,27.16
2023-05-23T09:54:54.037Z,27.20
2023-05-23T09:56:49.614Z,27.28
2023-05-23T09:58:54.159Z,27.22
2023-05-23T10:00:49.857Z,27.06
2023-05-23T10:02:58.936Z,26.98
2023-05-23T10:04:52.481Z,26.96
2023-05-23T10:06:56.002Z,26.93
2023-05-23T10:08:57.199Z,26.82
2023-05-23T10:10:57.324Z,26.68
2023-05-23T10:12:55.578Z,26.56
2023-05-23T10:14:56.224Z,26.50
2023-05-23T10:17:03.918Z,26.45
2023-05-23T10:19:06.662Z,26.42
2023-05-23T10:21:09.706Z,26.48
2023-05-23T10:23:02.441Z,26.48
2023-05-23T10:24:54.368Z,26.34
2023-05-23T10:26:47.085Z,26.25
2023-05-23T10:28:39.448Z,26.21
2023-05-23T10:30:30.416Z,26.18
2023-05-23T10:32:21.937Z,26.17
2023-05-23T10:34:44.661Z,26.17
2023-05-23T10:36:55.766Z,26.22
2023-05-23T10:38:59.398Z,26.19
2023-05-23T10:41:02.572Z,26.05
2023-05-23T10:43:26.846Z,26.06
2023-05-23T10:45:27.117Z,25.96
2023-05-23T10:47:31.247Z,25.98
2023-05-23T10:49:37.196Z,26.03
2023-05-23T10:51:39.265Z,26.08
2023-05-23T10:53:31.649Z,26.07
2023-05-23T10:55:22.915Z,26.07
2023-05-23T10:57:19.107Z,26.04
2023-05-23T10:59:23.611Z,25.93
2023-05-23T11:01:16.570Z,25.85
2023-05-23T11:03:09.521Z,25.76
2023-05-23T11:05:24.004Z,25.79
2023-05-23T11:07:32.679Z,25.82
2023-05-23T11:09:24.787Z,25.84
2023-05-23T11:11:16.614Z,25.93
2023-05-23T11:13:07.871Z,26.01
2023-05-23T11:14:58.722Z,26.09
2023-05-23T11:16:49.849Z,26.08
2023-05-23T11:18:40.935Z,26.05
2023-05-23T11:20:33.526Z,25.97
2023-05-23T11:22:29.074Z,25.99
2023-05-23T11:24:20.121Z,26.01
2023-05-23T11:26:33.646Z,26.02
2023-05-23T11:28:24.749Z,25.99
2023-05-23T11:30:18.219Z,25.97
2023-05-23T11:32:17.412Z,25.96
2023-05-23T11:34:08.986Z,25.96
2023-05-23T11:35:59.987Z,25.96
2023-05-23T11:37:51.215Z,25.97
2023-05-23T11:39:42.510Z,26.01
2023-05-23T11:41:36.084Z,26.07
2023-05-23T11:43:26.881Z,26.09
2023-05-23T11:45:21.280Z,26.11
2023-05-23T11:47:12.426Z,26.09
2023-05-23T11:49:03.364Z,26.08
2023-05-23T11:50:54.880Z,26.13
2023-05-23T11:52:46.882Z,26.22
2023-05-23T11:54:41.714Z,26.29
2023-05-23T11:56:39.923Z,26.33
2023-05-23T11:58:39.349Z,26.35
2023-05-23T12:00:30.670Z,26.33
2023-05-23T12:02:22.289Z,26.32
2023-05-23T12:04:13.778Z,26.33
2023-05-23T12:06:05.005Z,26.34
2023-05-23T12:07:56.107Z,26.27
2023-05-23T12:09:47.276Z,26.24
2023-05-23T12:11:39.622Z,26.25
2023-05-23T12:13:31.179Z,26.28
2023-05-23T12:15:27.285Z,26.24
2023-05-23T12:17:18.545Z,26.15
2023-05-23T12:19:09.714Z,26.17
2023-05-23T12:21:05.542Z,26.23
2023-05-23T12:22:57.598Z,26.27
2023-05-23T12:24:48.658Z,26.32
2023-05-23T12:26:51.515Z,26.37
2023-05-23T12:28:45.602Z,26.41
2023-05-23T12:30:45.920Z,26.49
2023-05-23T12:32:41.890Z,26.55
2023-05-23T12:34:33.227Z,26.62
2023-05-23T12:36:31.743Z,26.71
2023-05-23T12:38:22.993Z,26.69
2023-05-23T12:40:16.812Z,26.61
2023-05-23T12:42:10.061Z,26.57
2023-05-23T12:44:02.658Z,26.56
2023-05-23T12:45:54.582Z,26.61
2023-05-23T12:47:45.493Z,26.63
2023-05-23T12:49:37.076Z,26.69
2023-05-23T12:51:28.487Z,26.79
2023-05-23T12:53:19.249Z,26.92
2023-05-23T12:55:10.949Z,26.98
2023-05-23T12:57:01.956Z,27.00
2023-05-23T12:58:53.245Z,26.94
2023-05-23T13:00:43.948Z,26.98
2023-05-23T13:02:35.611Z,27.01
2023-05-23T13:04:27.597Z,27.04
2023-05-23T13:06:19.618Z,27.02
2023-05-23T13:08:11.490Z,27.00
2023-05-23T13:10:03.202Z,26.96
2023-05-23T13:11:55.309Z,26.98
2023-05-23T13:13:47.170Z,26.99
2023-05-23T13:15:38.304Z,26.98
2023-05-23T13:17:29.205Z,26.98
2023-05-23T13:19:20.694Z,26.98
2023-05-23T13:21:11.655Z,26.98
2023-05-23T13:23:02.599Z,26.92
2023-05-23T13:24:53.530Z,26.86
2023-05-23T13:26:44.501Z,26.85
2023-05-23T13:28:35.843Z,26.83
2023-05-23T13:30:27.152Z,26.81
2023-05-23T13:32:20.611Z,26.80
2023-05-23T13:34:14.327Z,26.83
2023-05-23T13:36:13.063Z,26.84
2023-05-23T13:38:26.064Z,26.78
2023-05-23T13:40:28.664Z,26.77
2023-05-23T13:42:20.470Z,26.81
2023-05-23T13:44:14.733Z,26.82
2023-05-23T13:46:08.667Z,26.84
2023-05-23T13:48:00.544Z,26.87
2023-05-23T13:49:51.510Z,26.92
2023-05-23T13:51:44.475Z,26.96
2023-05-23T13:53:35.457Z,27.04
2023-05-23T13:55:26.792Z,27.11
2023-05-23T13:57:24.084Z,27.14
2023-05-23T13:59:21.517Z,27.15
2023-05-23T14:01:16.822Z,27.18
2023-05-23T14:03:11.823Z,27.22
2023-05-23T14:05:05.005Z,27.20
2023-05-23T14:07:06.404Z,27.20
2023-05-23T14:08:57.865Z,27.21
2023-05-23T14:10:55.192Z,27.14
2023-05-23T14:12:45.997Z,27.05
2023-05-23T14:14:52.676Z,27.02
2023-05-23T14:16:53.854Z,27.06
2023-05-23T14:21:18.500Z,27.11
2023-05-23T14:23:23.202Z,27.13
2023-05-23T14:25:18.237Z,27.12
2023-05-23T14:27:15.077Z,27.14
2023-05-23T14:29:06.556Z,27.17
2023-05-23T14:30:57.714Z,27.20
2023-05-23T14:32:52.823Z,27.16
2023-05-23T14:34:43.919Z,27.15
2023-05-23T14:36:38.827Z,27.20
2023-05-23T14:38:33.797Z,27.24
2023-05-23T14:40:25.437Z,27.30
2023-05-23T14:42:20.174Z,27.36
2023-05-23T14:44:14.924Z,27.48
2023-05-23T14:46:10.056Z,27.52
2023-05-23T14:48:01.136Z,27.56
2023-05-23T14:49:52.247Z,27.50
2023-05-23T14:51:48.919Z,27.31
2023-05-23T14:53:41.352Z,27.11
2023-05-23T14:55:32.666Z,26.86
2023-05-23T14:57:24.016Z,26.59
2023-05-23T14:59:24.159Z,26.36
2023-05-23T15:01:15.518Z,26.15
2023-05-23T15:03:11.925Z,25.97
2023-05-23T15:05:03.978Z,25.79
2023-05-23T15:06:55.450Z,25.68
2023-05-23T15:08:46.875Z,25.57
2023-05-23T15:10:38.447Z,25.39
2023-05-23T15:12:29.894Z,25.26
2023-05-23T15:14:21.131Z,25.16
2023-05-23T15:16:12.159Z,25.10
2023-05-23T15:18:04.242Z,25.01
2023-05-23T15:19:57.122Z,24.96
2023-05-23T15:21:51.095Z,24.93
2023-05-23T15:23:42.643Z,24.90
2023-05-23T15:25:47.934Z,24.81
2023-05-23T15:27:40.212Z,24.75
2023-05-23T15:29:32.766Z,24.71
2023-05-23T15:31:24.016Z,24.67
2023-05-23T15:33:14.728Z,24.60
2023-05-23T15:35:10.376Z,24.53
2023-05-23T15:37:02.341Z,24.45
2023-05-23T15:38:53.651Z,24.41
2023-05-23T15:40:45.152Z,24.41
2023-05-23T15:42:42.435Z,24.39
2023-05-23T15:44:33.449Z,24.36
2023-05-23T15:46:24.542Z,24.33
2023-05-23T15:48:15.527Z,24.36
2023-05-23T15:50:08.764Z,24.34
2023-05-23T15:51:59.948Z,24.31
2023-05-23T15:55:44.617Z,24.29
2023-05-23T15:57:35.624Z,24.27
2023-05-23T15:59:28.655Z,24.26
2023-05-23T16:01:19.876Z,24.25
2023-05-23T16:03:11.018Z,24.22
2023-05-23T16:05:05.170Z,24.18
2023-05-23T16:06:56.182Z,24.15
2023-05-23T16:08:46.970Z,24.13
2023-05-23T16:10:40.379Z,24.10
2023-05-23T16:12:30.989Z,24.08
2023-05-23T16:14:22.995Z,24.07
2023-05-23T16:16:14.038Z,24.03
2023-05-23T16:18:06.640Z,23.96
2023-05-23T16:19:57.647Z,23.89
2023-05-23T16:21:48.691Z,23.82
2023-05-23T16:23:40.471Z,23.75
2023-05-23T16:25:31.298Z,23.66
2023-05-23T16:27:25.573Z,23.58
2023-05-23T16:29:16.277Z,23.53
2023-05-23T16:31:07.572Z,23.47
2023-05-23T16:32:58.996Z,23.41
2023-05-23T16:34:53.489Z,23.33
2023-05-23T16:36:46.170Z,23.26
2023-05-23T16:38:40.089Z,23.21
2023-05-23T16:40:31.388Z,23.19
2023-05-23T16:42:23.485Z,23.15
2023-05-23T16:44:14.490Z,23.10
2023-05-23T16:46:05.959Z,23.06
2023-05-23T16:48:00.174Z,23.02
2023-05-23T16:49:50.751Z,22.95
2023-05-23T16:51:41.841Z,22.87
2023-05-23T16:53:33.427Z,22.81
2023-05-23T16:55:24.271Z,22.71
2023-05-23T16:57:15.396Z,22.67
2023-05-23T16:59:06.565Z,22.65
2023-05-23T17:01:01.318Z,22.60
2023-05-23T17:02:52.772Z,22.51
2023-05-23T17:04:44.003Z,22.49
2023-05-23T17:06:35.479Z,22.50
2023-05-23T17:08:26.086Z,22.49
2023-05-23T17:10:20.105Z,22.43
2023-05-23T17:12:14.943Z,22.35
2023-05-23T17:14:06.850Z,22.29
2023-05-23T17:15:58.175Z,22.23
2023-05-23T17:17:49.275Z,22.20
2023-05-23T17:20:00.347Z,22.16
2023-05-23T17:21:51.282Z,22.14
2023-05-23T17:23:42.290Z,22.12
2023-05-23T17:25:33.329Z,22.10
2023-05-23T17:27:24.575Z,22.07
2023-05-23T17:29:15.543Z,22.02
2023-05-23T17:31:11.534Z,21.99
2023-05-23T17:33:02.686Z,21.98
2023-05-23T17:34:53.667Z,21.94
2023-05-23T17:36:48.209Z,21.94
2023-05-23T17:38:39.689Z,21.91
2023-05-23T17:40:30.919Z,21.88
2023-05-23T17:42:22.342Z,21.87
2023-05-23T17:44:16.594Z,21.87
2023-05-23T17:46:10.695Z,21.84
2023-05-23T17:48:01.398Z,21.82
2023-05-23T17:49:52.394Z,21.82
2023-05-23T17:51:43.178Z,21.81
2023-05-23T17:53:34.845Z,21.79
2023-05-23T17:55:26.418Z,21.74
2023-05-23T17:57:17.480Z,21.74
2023-05-23T17:59:09.217Z,21.72
2023-05-23T18:01:00.268Z,21.71
2023-05-23T18:02:51.947Z,21.69
2023-05-23T18:04:42.964Z,21.68
2023-05-23T18:06:34.085Z,21.66
2023-05-23T18:08:26.498Z,21.66
2023-05-23T18:10:17.628Z,21.65
2023-05-23T18:12:13.389Z,21.64
2023-05-23T18:14:04.318Z,21.64
2023-05-23T18:15:55.082Z,21.63
2023-05-23T18:17:49.684Z,21.63
2023-05-23T18:19:41.504Z,21.64
2023-05-23T18:21:33.230Z,21.65
2023-05-23T18:23:24.202Z,21.66
2023-05-23T18:25:15.327Z,21.64
2023-05-23T18:27:08.532Z,21.62
2023-05-23T18:29:00.178Z,21.62
2023-05-23T18:30:51.315Z,21.64
2023-05-23T18:32:43.193Z,21.64
2023-05-23T18:34:36.056Z,21.63
2023-05-23T18:36:27.485Z,21.62
2023-05-23T18:38:18.307Z,21.60
2023-05-23T18:40:10.311Z,21.61
2023-05-23T18:42:00.834Z,21.62
2023-05-23T18:43:51.844Z,21.63
2023-05-23T18:45:44.054Z,21.65
2023-05-23T18:47:35.827Z,21.66
2023-05-23T18:49:26.958Z,21.64
2023-05-23T18:51:18.208Z,21.64
2023-05-23T18:53:09.406Z,21.64
2023-05-23T18:55:00.981Z,21.65
2023-05-23T18:56:52.839Z,21.64
2023-05-23T18:58:48.358Z,21.64
2023-05-23T19:00:39.455Z,21.62
2023-05-23T19:02:34.620Z,21.58
2023-05-23T19:04:26.647Z,21.57
2023-05-23T19:06:17.872Z,21.57
2023-05-23T19:08:13.443Z,21.55
2023-05-23T19:10:06.758Z,21.53
2023-05-23T19:11:59.665Z,21.49
2023-05-23T19:13:50.749Z,21.48
2023-05-23T19:15:42.012Z,21.49
2023-05-23T19:17:32.924Z,21.48
2023-05-23T19:19:24.162Z,21.48
2023-05-23T19:21:15.104Z,21.48
2023-05-23T19:23:07.410Z,21.47
2023-05-23T19:25:00.160Z,21.47
2023-05-23T19:26:51.005Z,21.47
2023-05-23T19:28:42.141Z,21.49
2023-05-23T19:30:33.170Z,21.49
2023-05-23T19:32:23.860Z,21.50
2023-05-23T19:34:15.151Z,21.48
2023-05-23T19:36:11.345Z,21.47
2023-05-23T19:38:02.272Z,21.44
2023-05-23T19:39:53.270Z,21.44
2023-05-23T19:41:44.692Z,21.44
2023-05-23T19:43:35.703Z,21.44
2023-05-23T19:45:26.788Z,21.42
2023-05-23T19:47:17.766Z,21.41
2023-05-23T19:49:08.835Z,21.40
2023-05-23T19:50:59.705Z,21.38
2023-05-23T19:52:50.596Z,21.35
2023-05-23T19:54:42.097Z,21.33
2023-05-23T19:56:32.974Z,21.29
2023-05-23T19:58:23.821Z,21.25
2023-05-23T20:00:15.334Z,21.21
2023-05-23T20:02:10.090Z,21.21
2023-05-23T20:04:01.414Z,21.20
2023-05-23T20:05:52.645Z,21.19
2023-05-23T20:07:43.298Z,21.19
2023-05-23T20:09:34.550Z,21.19
2023-05-23T20:11:25.597Z,21.18
2023-05-23T20:13:16.597Z,21.15
2023-05-23T20:15:12.565Z,21.14
2023-05-23T20:17:03.794Z,21.11
2023-05-23T20:18:54.909Z,21.10
2023-05-23T20:20:45.741Z,21.08
2023-05-23T20:22:37.058Z,21.06
2023-05-23T20:24:28.216Z,21.04
2023-05-23T20:26:18.988Z,21.04
2023-05-23T20:28:10.106Z,21.01
2023-05-23T20:30:04.590Z,20.98
2023-05-23T20:31:55.538Z,20.97
2023-05-23T20:33:46.958Z,20.95
2023-05-23T20:35:38.042Z,20.90
2023-05-23T20:37:29.133Z,20.89
2023-05-23T20:39:21.887Z,20.88
2023-05-23T20:41:12.810Z,20.88
2023-05-23T20:43:03.640Z,20.87
2023-05-23T20:44:54.967Z,20.86
2023-05-23T20:46:51.985Z,20.85
2023-05-23T20:48:42.903Z,20.85
2023-05-23T20:50:33.811Z,20.83
2023-05-23T20:52:24.869Z,20.83
2023-05-23T20:54:16.703Z,20.79
2023-05-23T20:56:11.109Z,20.77
2023-05-23T20:58:02.070Z,20.74
2023-05-23T20:59:53.232Z,20.68
2023-05-23T21:01:44.676Z,20.60
2023-05-23T21:03:35.733Z,20.58
2023-05-23T21:05:32.000Z,20.56
2023-05-23T21:07:26.817Z,20.55
2023-05-23T21:09:20.999Z,20.55
2023-05-23T21:11:15.374Z,20.56
2023-05-23T21:13:08.530Z,20.54
2023-05-23T21:14:59.446Z,20.52
2023-05-23T21:16:50.650Z,20.51
2023-05-23T21:18:44.710Z,20.49
2023-05-23T21:20:35.762Z,20.48
2023-05-23T21:22:26.717Z,20.43
2023-05-23T21:24:17.544Z,20.41
2023-05-23T21:26:09.530Z,20.41
2023-05-23T21:28:06.276Z,20.35
2023-05-23T21:29:57.445Z,20.27
2023-05-23T21:31:48.501Z,20.21
2023-05-23T21:33:39.464Z,20.17
2023-05-23T21:35:30.540Z,20.13
2023-05-23T21:37:21.449Z,20.10
2023-05-23T21:39:15.845Z,20.10
2023-05-23T21:41:07.631Z,20.12
2023-05-23T21:42:58.813Z,20.09
2023-05-23T21:44:49.574Z,20.06
2023-05-23T21:46:42.217Z,20.02
2023-05-23T21:48:33.235Z,19.99
2023-05-23T21:50:24.312Z,19.99
2023-05-23T21:52:25.175Z,19.98
2023-05-23T21:54:32.165Z,19.96
2023-05-23T21:56:24.610Z,19.95
2023-05-23T21:58:29.043Z,19.94
2023-05-23T22:00:27.239Z,19.91
2023-05-23T22:02:27.723Z,19.92
2023-05-23T22:04:27.133Z,19.91
2023-05-23T22:06:29.480Z,19.93
2023-05-23T22:08:26.525Z,19.92
2023-05-23T22:10:20.931Z,19.93
2023-05-23T22:12:13.025Z,19.93
2023-05-23T22:14:14.571Z,19.89
2023-05-23T22:16:09.413Z,19.86
2023-05-23T22:18:01.290Z,19.85
2023-05-23T22:19:53.612Z,19.84
2023-05-23T22:21:48.237Z,19.79
2023-05-23T22:23:39.868Z,19.78
2023-05-23T22:25:34.953Z,19.78
2023-05-23T22:27:25.773Z,19.78
2023-05-23T22:29:16.700Z,19.78
2023-05-23T22:31:12.869Z,19.75
2023-05-23T22:33:04.082Z,19.72
2023-05-23T22:38:13.973Z,19.72
2023-05-23T22:40:06.939Z,19.69
2023-05-23T22:41:57.939Z,19.65
2023-05-23T22:43:51.793Z,19.62
2023-05-23T22:45:42.767Z,19.59
2023-05-23T22:47:40.450Z,19.58
2023-05-23T22:49:31.650Z,19.55
2023-05-23T22:51:22.481Z,19.54
2023-05-23T22:53:14.164Z,19.53
2023-05-23T22:55:16.634Z,19.54
2023-05-23T22:57:10.766Z,19.53
2023-05-23T22:59:13.327Z,19.54
2023-05-23T23:01:08.341Z,19.50
2023-05-23T23:03:03.120Z,19.47
2023-05-23T23:05:01.383Z,19.44
2023-05-23T23:06:53.198Z,19.41
2023-05-23T23:08:47.671Z,19.41
2023-05-23T23:10:38.782Z,19.38
2023-05-23T23:12:32.757Z,19.39
2023-05-23T23:14:23.418Z,19.39
2023-05-23T23:16:14.058Z,19.40
2023-05-23T23:18:07.775Z,19.40
2023-05-23T23:19:58.652Z,19.39
2023-05-23T23:21:49.185Z,19.36
2023-05-23T23:23:40.307Z,19.32
2023-05-23T23:25:34.543Z,19.26
2023-05-23T23:27:27.663Z,19.24
2023-05-23T23:29:22.577Z,19.22
2023-05-23T23:31:28.156Z,19.20
2023-05-23T23:34:04.445Z,19.18
2023-05-23T23:35:58.793Z,19.14
2023-05-23T23:37:51.101Z,19.14
2023-05-23T23:39:45.643Z,19.13
2023-05-23T23:41:36.564Z,19.12
2023-05-23T23:43:27.675Z,19.12
2023-05-23T23:45:22.421Z,19.09
2023-05-23T23:47:16.500Z,19.05
2023-05-23T23:49:20.506Z,19.03
2023-05-23T23:51:31.492Z,19.00
2023-05-23T23:53:24.140Z,18.99
2023-05-23T23:55:16.001Z,18.99
2023-05-23T23:57:17.936Z,18.99
2023-05-23T23:59:12.277Z,18.97
